sensor_id;sensor_type;location;lat;lon;timestamp;pressure;altitude;pressure_sealevel;temperature;humidity
42671;BME280;28283;55.426;37.756;2023-06-24T00:01:03;98741.63;;;17.95;83.15
42671;BME280;28283;55.426;37.756;2023-06-24T00:06:04;98741.28;;;17.86;83.42
42671;BME280;28283;55.426;37.756;2023-06-24T00:11:04;98755.13;;;17.85;83.38
42671;BME280;28283;55.426;37.756;2023-06-24T00:16:06;98758.66;;;17.80;83.57
42671;BME280;28283;55.426;37.756;2023-06-24T00:21:06;98752.84;;;17.66;84.19
42671;BME280;28283;55.426;37.756;2023-06-24T00:26:07;98744.66;;;17.61;84.57
42671;BME280;28283;55.426;37.756;2023-06-24T00:31:07;98745.13;;;17.53;84.52
42671;BME280;28283;55.426;37.756;2023-06-24T00:36:08;98743.44;;;17.42;85.12
42671;BME280;28283;55.426;37.756;2023-06-24T00:41:11;98733.63;;;17.35;85.35
42671;BME280;28283;55.426;37.756;2023-06-24T00:46:14;98728.69;;;17.32;85.40
42671;BME280;28283;55.426;37.756;2023-06-24T00:51:15;98731.38;;;17.27;85.53
42671;BME280;28283;55.426;37.756;2023-06-24T00:56:16;98723.69;;;17.14;86.22
42671;BME280;28283;55.426;37.756;2023-06-24T01:01:19;98727.44;;;17.13;86.57
42671;BME280;28283;55.426;37.756;2023-06-24T01:06:19;98730.63;;;17.05;86.94
42671;BME280;28283;55.426;37.756;2023-06-24T01:11:20;98740.13;;;17.02;87.29
42671;BME280;28283;55.426;37.756;2023-06-24T01:16:42;98736.91;;;17.05;87.49
42671;BME280;28283;55.426;37.756;2023-06-24T01:31:58;98743.44;;;17.09;87.57
42671;BME280;28283;55.426;37.756;2023-06-24T01:42:10;98739.00;;;16.98;88.38
42671;BME280;28283;55.426;37.756;2023-06-24T01:47:11;98732.03;;;17.07;88.13
42671;BME280;28283;55.426;37.756;2023-06-24T01:52:15;98736.94;;;17.10;88.25
42671;BME280;28283;55.426;37.756;2023-06-24T01:57:18;98725.19;;;17.05;88.93
42671;BME280;28283;55.426;37.756;2023-06-24T02:02:20;98730.94;;;17.08;89.11
42671;BME280;28283;55.426;37.756;2023-06-24T02:07:21;98729.88;;;17.09;89.06
42671;BME280;28283;55.426;37.756;2023-06-24T02:12:23;98726.94;;;17.16;88.95
42671;BME280;28283;55.426;37.756;2023-06-24T02:17:24;98737.00;;;17.21;88.48
42671;BME280;28283;55.426;37.756;2023-06-24T02:22:29;98733.19;;;17.16;88.64
42671;BME280;28283;55.426;37.756;2023-06-24T02:27:30;98734.59;;;17.24;88.62
42671;BME280;28283;55.426;37.756;2023-06-24T02:32:30;98731.88;;;17.24;88.04
42671;BME280;28283;55.426;37.756;2023-06-24T02:37:31;98724.03;;;17.28;88.24
42671;BME280;28283;55.426;37.756;2023-06-24T02:42:31;98736.00;;;17.27;88.12
42671;BME280;28283;55.426;37.756;2023-06-24T02:47:32;98740.31;;;17.28;87.67
42671;BME280;28283;55.426;37.756;2023-06-24T02:52:33;98734.56;;;17.19;88.01
42671;BME280;28283;55.426;37.756;2023-06-24T02:57:37;98736.75;;;17.22;87.79
42671;BME280;28283;55.426;37.756;2023-06-24T03:02:39;98755.69;;;17.12;87.53
42671;BME280;28283;55.426;37.756;2023-06-24T03:07:39;98736.47;;;17.18;87.60
42671;BME280;28283;55.426;37.756;2023-06-24T03:12:40;98747.31;;;17.18;87.75
42671;BME280;28283;55.426;37.756;2023-06-24T03:17:40;98741.63;;;17.20;87.38
42671;BME280;28283;55.426;37.756;2023-06-24T03:22:41;98744.56;;;17.13;87.48
42671;BME280;28283;55.426;37.756;2023-06-24T03:27:41;98744.91;;;17.22;86.89
42671;BME280;28283;55.426;37.756;2023-06-24T03:32:42;98735.66;;;17.18;86.44
42671;BME280;28283;55.426;37.756;2023-06-24T03:37:47;98744.66;;;17.24;85.50
42671;BME280;28283;55.426;37.756;2023-06-24T03:42:47;98739.44;;;17.17;86.10
42671;BME280;28283;55.426;37.756;2023-06-24T03:47:47;98745.72;;;17.23;86.25
42671;BME280;28283;55.426;37.756;2023-06-24T03:52:48;98754.56;;;17.40;84.73
42671;BME280;28283;55.426;37.756;2023-06-24T03:57:49;98746.41;;;17.40;82.54
42671;BME280;28283;55.426;37.756;2023-06-24T04:02:49;98741.47;;;17.37;80.29
42671;BME280;28283;55.426;37.756;2023-06-24T04:07:52;98750.94;;;17.29;80.52
42671;BME280;28283;55.426;37.756;2023-06-24T04:12:53;98751.19;;;17.28;79.06
42671;BME280;28283;55.426;37.756;2023-06-24T04:17:54;98749.56;;;17.27;79.56
42671;BME280;28283;55.426;37.756;2023-06-24T04:22:54;98762.00;;;17.17;80.80
42671;BME280;28283;55.426;37.756;2023-06-24T04:27:55;98767.22;;;17.29;78.74
42671;BME280;28283;55.426;37.756;2023-06-24T04:32:55;98771.34;;;17.32;77.51
42671;BME280;28283;55.426;37.756;2023-06-24T04:37:56;98780.31;;;17.32;78.24
42671;BME280;28283;55.426;37.756;2023-06-24T04:42:56;98784.78;;;17.49;77.52
42671;BME280;28283;55.426;37.756;2023-06-24T04:47:56;98774.28;;;17.63;75.46
42671;BME280;28283;55.426;37.756;2023-06-24T04:52:57;98789.09;;;17.45;75.51
42671;BME280;28283;55.426;37.756;2023-06-24T04:57:58;98799.31;;;17.32;76.95
42671;BME280;28283;55.426;37.756;2023-06-24T05:02:58;98794.28;;;17.51;76.35
42671;BME280;28283;55.426;37.756;2023-06-24T05:07:59;98802.13;;;17.43;76.41
42671;BME280;28283;55.426;37.756;2023-06-24T05:12:59;98801.91;;;17.49;76.34
42671;BME280;28283;55.426;37.756;2023-06-24T05:18:00;98792.13;;;17.48;76.14
42671;BME280;28283;55.426;37.756;2023-06-24T05:23:00;98800.19;;;17.38;77.22
42671;BME280;28283;55.426;37.756;2023-06-24T05:28:00;98799.72;;;17.51;75.92
42671;BME280;28283;55.426;37.756;2023-06-24T05:33:01;98792.63;;;17.45;76.23
42671;BME280;28283;55.426;37.756;2023-06-24T05:38:01;98788.16;;;17.29;76.84
42671;BME280;28283;55.426;37.756;2023-06-24T05:43:02;98806.16;;;17.40;76.99
42671;BME280;28283;55.426;37.756;2023-06-24T05:48:03;98796.41;;;17.44;76.71
42671;BME280;28283;55.426;37.756;2023-06-24T05:53:03;98804.44;;;17.29;78.12
42671;BME280;28283;55.426;37.756;2023-06-24T05:58:04;98788.91;;;17.24;78.31
42671;BME280;28283;55.426;37.756;2023-06-24T06:03:04;98812.13;;;17.10;78.76
42671;BME280;28283;55.426;37.756;2023-06-24T06:08:05;98817.81;;;17.08;79.41
42671;BME280;28283;55.426;37.756;2023-06-24T06:13:05;98819.72;;;17.08;78.89
42671;BME280;28283;55.426;37.756;2023-06-24T06:18:06;98810.34;;;17.21;79.57
42671;BME280;28283;55.426;37.756;2023-06-24T06:23:06;98829.97;;;17.28;78.63
42671;BME280;28283;55.426;37.756;2023-06-24T06:28:07;98807.53;;;17.38;77.51
42671;BME280;28283;55.426;37.756;2023-06-24T06:33:07;98818.94;;;17.40;77.98
42671;BME280;28283;55.426;37.756;2023-06-24T06:38:07;98823.03;;;17.42;76.89
42671;BME280;28283;55.426;37.756;2023-06-24T06:43:08;98822.88;;;17.54;77.04
42671;BME280;28283;55.426;37.756;2023-06-24T06:48:08;98819.41;;;17.64;75.80
42671;BME280;28283;55.426;37.756;2023-06-24T06:53:09;98816.19;;;17.72;75.50
42671;BME280;28283;55.426;37.756;2023-06-24T06:58:10;98818.91;;;17.72;75.26
42671;BME280;28283;55.426;37.756;2023-06-24T07:03:10;98829.16;;;17.60;76.04
42671;BME280;28283;55.426;37.756;2023-06-24T07:08:10;98819.28;;;17.48;76.52
42671;BME280;28283;55.426;37.756;2023-06-24T07:13:11;98801.03;;;17.44;76.60
42671;BME280;28283;55.426;37.756;2023-06-24T07:18:11;98785.00;;;17.10;77.78
42671;BME280;28283;55.426;37.756;2023-06-24T07:23:12;98831.22;;;17.47;75.80
42671;BME280;28283;55.426;37.756;2023-06-24T07:28:12;98831.97;;;17.38;76.96
42671;BME280;28283;55.426;37.756;2023-06-24T07:33:12;98834.00;;;17.52;75.51
42671;BME280;28283;55.426;37.756;2023-06-24T07:38:13;98821.44;;;17.46;75.37
42671;BME280;28283;55.426;37.756;2023-06-24T07:43:13;98831.06;;;17.59;73.75
42671;BME280;28283;55.426;37.756;2023-06-24T07:48:14;98827.75;;;17.52;75.23
42671;BME280;28283;55.426;37.756;2023-06-24T07:53:14;98847.03;;;17.50;75.30
42671;BME280;28283;55.426;37.756;2023-06-24T07:58:15;98858.13;;;17.49;75.47
42671;BME280;28283;55.426;37.756;2023-06-24T08:03:15;98849.34;;;17.36;76.11
42671;BME280;28283;55.426;37.756;2023-06-24T08:08:16;98862.00;;;17.26;76.18
42671;BME280;28283;55.426;37.756;2023-06-24T08:13:19;98863.03;;;17.20;76.52
42671;BME280;28283;55.426;37.756;2023-06-24T08:18:20;98864.34;;;17.17;77.11
42671;BME280;28283;55.426;37.756;2023-06-24T08:23:20;98865.94;;;17.13;77.29
42671;BME280;28283;55.426;37.756;2023-06-24T08:28:21;98882.00;;;17.14;77.14
42671;BME280;28283;55.426;37.756;2023-06-24T08:33:21;98869.41;;;17.08;77.85
42671;BME280;28283;55.426;37.756;2023-06-24T08:38:21;98874.09;;;17.13;78.02
42671;BME280;28283;55.426;37.756;2023-06-24T08:43:22;98882.25;;;17.13;77.76
42671;BME280;28283;55.426;37.756;2023-06-24T08:48:22;98890.44;;;17.18;77.70
42671;BME280;28283;55.426;37.756;2023-06-24T08:53:24;98900.50;;;17.17;77.29
42671;BME280;28283;55.426;37.756;2023-06-24T08:58:26;98885.06;;;17.23;76.73
42671;BME280;28283;55.426;37.756;2023-06-24T09:03:27;98888.41;;;17.30;76.56
42671;BME280;28283;55.426;37.756;2023-06-24T09:08:27;98891.44;;;17.34;76.49
42671;BME280;28283;55.426;37.756;2023-06-24T09:13:34;98889.19;;;17.58;75.44
42671;BME280;28283;55.426;37.756;2023-06-24T09:18:35;98911.13;;;17.51;75.83
42671;BME280;28283;55.426;37.756;2023-06-24T09:23:39;98897.00;;;17.49;76.19
42671;BME280;28283;55.426;37.756;2023-06-24T09:28:40;98910.59;;;17.49;76.33
42671;BME280;28283;55.426;37.756;2023-06-24T09:33:40;98907.72;;;17.34;77.38
42671;BME280;28283;55.426;37.756;2023-06-24T09:38:41;98920.31;;;17.45;76.78
42671;BME280;28283;55.426;37.756;2023-06-24T09:43:42;98925.50;;;17.47;76.10
42671;BME280;28283;55.426;37.756;2023-06-24T09:48:44;98935.97;;;17.33;76.57
42671;BME280;28283;55.426;37.756;2023-06-24T09:53:45;98932.75;;;17.36;77.48
42671;BME280;28283;55.426;37.756;2023-06-24T09:58:45;98948.22;;;17.63;76.47
42671;BME280;28283;55.426;37.756;2023-06-24T10:03:46;98957.44;;;17.62;76.82
42671;BME280;28283;55.426;37.756;2023-06-24T10:08:47;98958.53;;;17.61;76.90
42671;BME280;28283;55.426;37.756;2023-06-24T10:13:48;98967.66;;;17.49;77.36
42671;BME280;28283;55.426;37.756;2023-06-24T10:18:48;98953.84;;;17.29;78.94
42671;BME280;28283;55.426;37.756;2023-06-24T10:34:39;98969.66;;;17.32;79.04
42671;BME280;28283;55.426;37.756;2023-06-24T10:39:35;98985.75;;;17.16;79.57
42671;BME280;28283;55.426;37.756;2023-06-24T10:44:44;98994.41;;;17.13;79.95
42671;BME280;28283;55.426;37.756;2023-06-24T10:49:48;98993.19;;;17.04;79.75
42671;BME280;28283;55.426;37.756;2023-06-24T10:54:49;99001.63;;;17.25;78.86
42671;BME280;28283;55.426;37.756;2023-06-24T10:59:50;99004.28;;;17.20;79.66
42671;BME280;28283;55.426;37.756;2023-06-24T11:09:55;99025.75;;;17.21;79.95
42671;BME280;28283;55.426;37.756;2023-06-24T11:14:56;99025.22;;;17.02;79.98
42671;BME280;28283;55.426;37.756;2023-06-24T11:19:58;99040.78;;;17.07;80.51
42671;BME280;28283;55.426;37.756;2023-06-24T11:24:58;99035.97;;;17.14;80.66
42671;BME280;28283;55.426;37.756;2023-06-24T11:29:59;99040.56;;;17.13;80.74
42671;BME280;28283;55.426;37.756;2023-06-24T11:35:02;99032.25;;;17.20;80.04
42671;BME280;28283;55.426;37.756;2023-06-24T11:40:03;99029.91;;;17.29;80.09
42671;BME280;28283;55.426;37.756;2023-06-24T11:45:08;99027.16;;;17.73;77.50
42671;BME280;28283;55.426;37.756;2023-06-24T11:50:09;99044.50;;;17.45;77.82
42671;BME280;28283;55.426;37.756;2023-06-24T12:00:19;99048.34;;;17.27;79.11
42671;BME280;28283;55.426;37.756;2023-06-24T12:05:23;99053.97;;;17.42;79.27
42671;BME280;28283;55.426;37.756;2023-06-24T12:10:26;99058.09;;;17.45;79.24
42671;BME280;28283;55.426;37.756;2023-06-24T12:15:27;99052.19;;;17.53;78.89
42671;BME280;28283;55.426;37.756;2023-06-24T12:20:28;99050.50;;;17.47;78.77
42671;BME280;28283;55.426;37.756;2023-06-24T12:25:29;99054.59;;;17.49;78.89
42671;BME280;28283;55.426;37.756;2023-06-24T12:30:29;99070.97;;;17.54;78.84
42671;BME280;28283;55.426;37.756;2023-06-24T12:35:30;99070.66;;;17.51;78.48
42671;BME280;28283;55.426;37.756;2023-06-24T12:40:30;99075.44;;;17.44;78.34
42671;BME280;28283;55.426;37.756;2023-06-24T12:45:31;99045.56;;;17.22;78.03
42671;BME280;28283;55.426;37.756;2023-06-24T12:50:31;99072.97;;;17.42;78.53
42671;BME280;28283;55.426;37.756;2023-06-24T12:55:32;99067.25;;;17.61;78.26
42671;BME280;28283;55.426;37.756;2023-06-24T13:00:33;99067.66;;;17.74;77.77
42671;BME280;28283;55.426;37.756;2023-06-24T13:05:33;99069.63;;;17.79;77.58
42671;BME280;28283;55.426;37.756;2023-06-24T13:10:33;99080.25;;;17.81;77.08
42671;BME280;28283;55.426;37.756;2023-06-24T13:15:34;99086.19;;;17.78;77.48
42671;BME280;28283;55.426;37.756;2023-06-24T13:20:34;99091.31;;;17.74;77.25
42671;BME280;28283;55.426;37.756;2023-06-24T13:25:36;99101.75;;;17.60;76.91
42671;BME280;28283;55.426;37.756;2023-06-24T13:30:36;99101.41;;;17.56;76.76
42671;BME280;28283;55.426;37.756;2023-06-24T13:35:37;99107.88;;;17.50;76.81
42671;BME280;28283;55.426;37.756;2023-06-24T13:40:37;99070.41;;;17.30;76.95
42671;BME280;28283;55.426;37.756;2023-06-24T13:45:38;99112.13;;;17.63;75.59
42671;BME280;28283;55.426;37.756;2023-06-24T13:50:38;99123.78;;;17.64;75.82
42671;BME280;28283;55.426;37.756;2023-06-24T13:55:39;99124.31;;;17.61;75.80
42671;BME280;28283;55.426;37.756;2023-06-24T14:00:39;99131.44;;;17.67;75.43
42671;BME280;28283;55.426;37.756;2023-06-24T14:05:40;99129.53;;;17.67;75.70
42671;BME280;28283;55.426;37.756;2023-06-24T14:10:41;99137.13;;;17.65;75.77
42671;BME280;28283;55.426;37.756;2023-06-24T14:15:41;99145.03;;;17.67;75.35
42671;BME280;28283;55.426;37.756;2023-06-24T14:20:42;99141.34;;;17.73;75.23
42671;BME280;28283;55.426;37.756;2023-06-24T14:25:42;99144.69;;;17.80;75.14
42671;BME280;28283;55.426;37.756;2023-06-24T14:30:42;99139.91;;;17.87;75.01
42671;BME280;28283;55.426;37.756;2023-06-24T14:35:43;99125.47;;;18.09;74.78
42671;BME280;28283;55.426;37.756;2023-06-24T14:40:43;99134.69;;;18.35;74.35
42671;BME280;28283;55.426;37.756;2023-06-24T14:45:44;99133.69;;;18.74;72.76
42671;BME280;28283;55.426;37.756;2023-06-24T14:50:44;99137.34;;;18.89;72.07
42671;BME280;28283;55.426;37.756;2023-06-24T14:55:45;99122.75;;;19.01;71.03
42671;BME280;28283;55.426;37.756;2023-06-24T15:00:46;99125.25;;;19.13;71.25
42671;BME280;28283;55.426;37.756;2023-06-24T15:05:46;99126.16;;;19.29;69.16
42671;BME280;28283;55.426;37.756;2023-06-24T15:10:47;99121.63;;;19.44;70.55
42671;BME280;28283;55.426;37.756;2023-06-24T15:15:47;99123.34;;;19.61;68.79
42671;BME280;28283;55.426;37.756;2023-06-24T15:20:49;99138.16;;;19.75;69.33
42671;BME280;28283;55.426;37.756;2023-06-24T15:25:50;99141.47;;;19.88;66.32
42671;BME280;28283;55.426;37.756;2023-06-24T15:30:52;99146.47;;;20.16;65.83
42671;BME280;28283;55.426;37.756;2023-06-24T15:35:52;99139.91;;;20.12;65.45
42671;BME280;28283;55.426;37.756;2023-06-24T15:40:53;99149.19;;;20.11;65.00
42671;BME280;28283;55.426;37.756;2023-06-24T15:45:53;99145.41;;;20.28;64.80
42671;BME280;28283;55.426;37.756;2023-06-24T15:50:54;99130.75;;;20.65;64.89
42671;BME280;28283;55.426;37.756;2023-06-24T15:55:54;99137.84;;;21.98;62.68
42671;BME280;28283;55.426;37.756;2023-06-24T16:00:55;99135.88;;;23.46;60.08
42671;BME280;28283;55.426;37.756;2023-06-24T16:05:56;99135.91;;;24.32;56.87
42671;BME280;28283;55.426;37.756;2023-06-24T16:10:56;99140.44;;;24.61;56.23
42671;BME280;28283;55.426;37.756;2023-06-24T16:15:59;99139.31;;;25.28;56.81
42671;BME280;28283;55.426;37.756;2023-06-24T16:21:00;99143.53;;;25.81;53.59
42671;BME280;28283;55.426;37.756;2023-06-24T16:26:00;99146.34;;;26.17;52.38
42671;BME280;28283;55.426;37.756;2023-06-24T16:31:01;99152.94;;;26.30;53.79
42671;BME280;28283;55.426;37.756;2023-06-24T16:36:02;99107.53;;;25.77;47.19
42671;BME280;28283;55.426;37.756;2023-06-24T16:41:02;99140.50;;;25.22;50.45
42671;BME280;28283;55.426;37.756;2023-06-24T16:46:03;99128.91;;;24.40;50.04
42671;BME280;28283;55.426;37.756;2023-06-24T16:51:03;99139.38;;;24.19;51.71
42671;BME280;28283;55.426;37.756;2023-06-24T16:56:04;99139.38;;;23.52;53.02
42671;BME280;28283;55.426;37.756;2023-06-24T17:01:05;99165.59;;;23.10;51.82
42671;BME280;28283;55.426;37.756;2023-06-24T17:06:05;99165.72;;;22.55;53.72
42671;BME280;28283;55.426;37.756;2023-06-24T17:11:06;99166.53;;;22.05;55.21
42671;BME280;28283;55.426;37.756;2023-06-24T17:16:06;99165.63;;;21.60;56.04
42671;BME280;28283;55.426;37.756;2023-06-24T17:21:07;99172.78;;;21.25;57.79
42671;BME280;28283;55.426;37.756;2023-06-24T17:26:07;99188.66;;;21.08;59.07
42671;BME280;28283;55.426;37.756;2023-06-24T17:31:08;99186.19;;;20.75;59.80
42671;BME280;28283;55.426;37.756;2023-06-24T17:36:08;99193.19;;;20.35;60.50
42671;BME280;28283;55.426;37.756;2023-06-24T17:41:08;99202.63;;;19.97;61.18
42671;BME280;28283;55.426;37.756;2023-06-24T17:46:09;99203.53;;;19.70;61.93
42671;BME280;28283;55.426;37.756;2023-06-24T17:51:10;99207.25;;;19.49;62.20
42671;BME280;28283;55.426;37.756;2023-06-24T17:56:10;99198.84;;;19.18;62.67
42671;BME280;28283;55.426;37.756;2023-06-24T18:01:11;99219.09;;;18.95;63.34
42671;BME280;28283;55.426;37.756;2023-06-24T18:06:15;99220.00;;;18.78;63.39
42671;BME280;28283;55.426;37.756;2023-06-24T18:11:15;99221.75;;;18.62;63.59
42671;BME280;28283;55.426;37.756;2023-06-24T18:16:16;99227.31;;;18.45;64.05
42671;BME280;28283;55.426;37.756;2023-06-24T18:21:16;99230.69;;;18.30;64.60
42671;BME280;28283;55.426;37.756;2023-06-24T18:26:17;99239.06;;;18.24;64.49
42671;BME280;28283;55.426;37.756;2023-06-24T18:31:18;99241.13;;;18.17;64.89
42671;BME280;28283;55.426;37.756;2023-06-24T18:36:18;99245.63;;;18.06;64.87
42671;BME280;28283;55.426;37.756;2023-06-24T18:41:19;99244.94;;;17.93;65.28
42671;BME280;28283;55.426;37.756;2023-06-24T18:46:19;99249.38;;;17.83;65.67
42671;BME280;28283;55.426;37.756;2023-06-24T18:51:20;99253.03;;;17.71;66.28
42671;BME280;28283;55.426;37.756;2023-06-24T18:56:21;99258.06;;;17.63;66.21
42671;BME280;28283;55.426;37.756;2023-06-24T19:01:21;99116.38;;;16.64;65.76
42671;BME280;28283;55.426;37.756;2023-06-24T19:06:22;99265.16;;;17.47;66.46
42671;BME280;28283;55.426;37.756;2023-06-24T19:11:22;99271.84;;;17.39;67.12
42671;BME280;28283;55.426;37.756;2023-06-24T19:16:23;99270.69;;;17.35;66.79
42671;BME280;28283;55.426;37.756;2023-06-24T19:21:23;99266.25;;;17.29;67.18
42671;BME280;28283;55.426;37.756;2023-06-24T19:26:24;99276.22;;;17.23;67.20
42671;BME280;28283;55.426;37.756;2023-06-24T19:31:24;99275.78;;;17.14;67.61
42671;BME280;28283;55.426;37.756;2023-06-24T19:36:24;99274.56;;;17.05;67.49
42671;BME280;28283;55.426;37.756;2023-06-24T19:41:25;99275.75;;;16.97;67.39
42671;BME280;28283;55.426;37.756;2023-06-24T19:46:25;99280.19;;;16.87;67.52
42671;BME280;28283;55.426;37.756;2023-06-24T19:51:29;99269.94;;;16.77;68.15
42671;BME280;28283;55.426;37.756;2023-06-24T19:56:30;99272.47;;;16.67;67.99
42671;BME280;28283;55.426;37.756;2023-06-24T20:01:30;99266.59;;;16.58;67.98
42671;BME280;28283;55.426;37.756;2023-06-24T20:06:31;99258.03;;;16.49;68.74
42671;BME280;28283;55.426;37.756;2023-06-24T20:11:31;99266.22;;;16.37;68.72
42671;BME280;28283;55.426;37.756;2023-06-24T20:16:31;99274.38;;;16.26;68.64
42671;BME280;28283;55.426;37.756;2023-06-24T20:21:32;99277.38;;;16.12;69.22
42671;BME280;28283;55.426;37.756;2023-06-24T20:26:32;99281.75;;;16.01;69.53
42671;BME280;28283;55.426;37.756;2023-06-24T20:31:33;99292.94;;;15.93;69.20
42671;BME280;28283;55.426;37.756;2023-06-24T20:36:33;99287.44;;;15.88;69.27
42671;BME280;28283;55.426;37.756;2023-06-24T20:41:34;99291.88;;;15.82;68.93
42671;BME280;28283;55.426;37.756;2023-06-24T20:46:34;99299.09;;;15.77;69.21
42671;BME280;28283;55.426;37.756;2023-06-24T20:51:34;99298.69;;;15.73;69.36
42671;BME280;28283;55.426;37.756;2023-06-24T20:56:35;99294.81;;;15.69;69.75
42671;BME280;28283;55.426;37.756;2023-06-24T21:01:35;99302.81;;;15.64;69.45
42671;BME280;28283;55.426;37.756;2023-06-24T21:06:36;99305.19;;;15.60;70.02
42671;BME280;28283;55.426;37.756;2023-06-24T21:11:36;99312.13;;;15.56;69.96
42671;BME280;28283;55.426;37.756;2023-06-24T21:16:37;99308.22;;;15.52;70.05
42671;BME280;28283;55.426;37.756;2023-06-24T21:21:37;99304.69;;;15.52;70.12
42671;BME280;28283;55.426;37.756;2023-06-24T21:26:38;99302.72;;;15.47;70.40
42671;BME280;28283;55.426;37.756;2023-06-24T21:31:38;99301.28;;;15.44;70.45
42671;BME280;28283;55.426;37.756;2023-06-24T21:36:38;99298.44;;;15.39;70.49
42671;BME280;28283;55.426;37.756;2023-06-24T21:41:40;99304.56;;;15.35;70.84
42671;BME280;28283;55.426;37.756;2023-06-24T21:46:43;99309.88;;;15.30;70.79
42671;BME280;28283;55.426;37.756;2023-06-24T21:51:43;99301.25;;;15.21;70.78
42671;BME280;28283;55.426;37.756;2023-06-24T21:56:44;99311.59;;;15.12;70.49
42671;BME280;28283;55.426;37.756;2023-06-24T22:01:45;99313.78;;;15.03;70.91
42671;BME280;28283;55.426;37.756;2023-06-24T22:06:45;99320.50;;;15.01;71.17
42671;BME280;28283;55.426;37.756;2023-06-24T22:11:45;99318.25;;;14.98;71.43
42671;BME280;28283;55.426;37.756;2023-06-24T22:16:46;99325.78;;;14.96;71.17
42671;BME280;28283;55.426;37.756;2023-06-24T22:21:46;99316.72;;;14.90;71.35
42671;BME280;28283;55.426;37.756;2023-06-24T22:26:47;99328.22;;;14.85;71.54
42671;BME280;28283;55.426;37.756;2023-06-24T22:31:47;99335.59;;;14.78;71.45
42671;BME280;28283;55.426;37.756;2023-06-24T22:36:48;99334.03;;;14.70;71.57
42671;BME280;28283;55.426;37.756;2023-06-24T22:41:48;99337.41;;;14.66;71.43
42671;BME280;28283;55.426;37.756;2023-06-24T22:46:49;99337.28;;;14.61;71.74
42671;BME280;28283;55.426;37.756;2023-06-24T22:51:50;99353.34;;;14.56;71.96
42671;BME280;28283;55.426;37.756;2023-06-24T22:56:50;99367.75;;;14.49;71.90
42671;BME280;28283;55.426;37.756;2023-06-24T23:01:51;99351.38;;;14.44;71.90
42671;BME280;28283;55.426;37.756;2023-06-24T23:06:51;99361.44;;;14.37;72.31
42671;BME280;28283;55.426;37.756;2023-06-24T23:11:53;99361.97;;;14.27;71.68
42671;BME280;28283;55.426;37.756;2023-06-24T23:16:54;99377.44;;;14.20;71.68
42671;BME280;28283;55.426;37.756;2023-06-24T23:21:54;99379.34;;;14.20;71.98
42671;BME280;28283;55.426;37.756;2023-06-24T23:26:56;99391.19;;;14.19;71.62
42671;BME280;28283;55.426;37.756;2023-06-24T23:31:57;99390.81;;;14.15;72.48
42671;BME280;28283;55.426;37.756;2023-06-24T23:36:57;99395.66;;;14.06;71.48
42671;BME280;28283;55.426;37.756;2023-06-24T23:41:58;99395.34;;;13.96;71.73
42671;BME280;28283;55.426;37.756;2023-06-24T23:46:59;99393.38;;;13.85;72.30
42671;BME280;28283;55.426;37.756;2023-06-24T23:51:59;99390.50;;;13.80;72.90
42671;BME280;28283;55.426;37.756;2023-06-24T23:56:59;99394.09;;;13.73;72.06
